Time;durP1;ratioP1;P1;durP2;ratioP2;P2;SDS_P1;SDS_P2;PMS_P1;PMS_P2;Temp;Humidity;BMP_temperature;BMP_pressure;BME280_temperature;BME280_humidity;BME280_pressure;Samples;Min_cycle;Max_cycle;Signal;HPM_P1;HPM_P2
2023/05/05 00:01:11;;;;;;;3.15;1.08;;;13.90;99.90;;;;;;4974728;28;20022;-82
2023/05/05 00:03:36;;;;;;;2.33;0.75;;;13.90;99.90;;;;;;5008870;28;20478;-82
2023/05/05 00:06:03;;;;;;;1.95;0.90;;;13.90;99.90;;;;;;4981920;28;20061;-83
2023/05/05 00:08:28;;;;;;;4.25;1.60;;;14.00;99.90;;;;;;4991496;28;20033;-83
2023/05/05 00:10:55;;;;;;;4.18;1.23;;;13.90;99.90;;;;;;4992013;28;20029;-82
2023/05/05 00:13:21;;;;;;;3.33;1.20;;;13.90;99.90;;;;;;4975967;28;20056;-82
2023/05/05 00:15:49;;;;;;;1.70;0.93;;;13.80;99.90;;;;;;5007990;28;20061;-81
2023/05/05 00:18:16;;;;;;;2.28;1.00;;;13.90;99.90;;;;;;4975116;28;20054;-83
2023/05/05 00:20:43;;;;;;;2.35;1.33;;;13.80;99.90;;;;;;4972378;28;20033;-82
2023/05/05 00:23:08;;;;;;;2.03;0.90;;;13.80;99.90;;;;;;5009864;28;20112;-82
2023/05/05 00:25:34;;;;;;;1.85;0.90;;;13.80;99.90;;;;;;4974899;28;20137;-82
2023/05/05 00:28:00;;;;;;;2.88;1.00;;;13.80;99.90;;;;;;5008327;28;20040;-82
2023/05/05 00:30:26;;;;;;;2.85;0.98;;;13.80;99.90;;;;;;5009624;28;20036;-82
2023/05/05 00:32:53;;;;;;;2.53;1.40;;;13.90;99.90;;;;;;4975747;28;20032;-81
2023/05/05 00:35:19;;;;;;;2.60;1.02;;;13.90;99.90;;;;;;5007302;28;20513;-82
2023/05/05 00:37:45;;;;;;;3.38;1.45;;;13.90;99.90;;;;;;4991414;28;20128;-82
2023/05/05 00:40:12;;;;;;;2.67;1.45;;;13.80;99.90;;;;;;4985925;28;20037;-83
2023/05/05 00:42:46;;;;;;;3.38;0.90;;;13.80;99.90;;;;;;4975355;28;20463;-82
2023/05/05 00:45:13;;;;;;;1.50;0.73;;;13.90;99.90;;;;;;4969865;28;20065;-82
2023/05/05 00:47:41;;;;;;;2.33;1.17;;;13.90;99.90;;;;;;5008691;28;20058;-82
2023/05/05 00:50:08;;;;;;;4.88;1.67;;;13.70;99.90;;;;;;5009187;28;20041;-83
2023/05/05 00:52:36;;;;;;;1.73;1.20;;;13.70;99.90;;;;;;4971686;28;20019;-82
2023/05/05 00:55:03;;;;;;;3.35;1.50;;;13.70;99.90;;;;;;5008727;28;20052;-82
2023/05/05 00:57:29;;;;;;;2.67;1.58;;;13.70;99.90;;;;;;4989545;28;20100;-82
2023/05/05 00:59:55;;;;;;;2.70;1.92;;;13.70;99.90;;;;;;4988047;28;20057;-83
2023/05/05 01:02:21;;;;;;;2.53;1.80;;;13.70;99.90;;;;;;4974784;28;20041;-83
2023/05/05 01:04:47;;;;;;;2.00;1.27;;;13.80;99.90;;;;;;4991798;28;20403;-82
2023/05/05 01:07:36;;;;;;;2.70;1.60;;;13.80;99.90;;;;;;4971253;28;20137;-83
2023/05/05 01:10:11;;;;;;;2.42;1.35;;;13.80;99.90;;;;;;4990041;28;20113;-82
2023/05/05 01:12:56;;;;;;;2.47;1.30;;;13.70;99.90;;;;;;4971833;28;20375;-83
2023/05/05 01:15:30;;;;;;;3.33;1.48;;;13.80;99.90;;;;;;5000256;28;20038;-82
2023/05/05 01:18:34;;;;;;;2.65;1.70;;;13.90;99.90;;;;;;4992927;28;20622;-83
2023/05/05 01:21:18;;;;;;;2.33;1.10;;;13.80;99.90;;;;;;5011292;28;20363;-83
2023/05/05 01:24:19;;;;;;;3.17;0.98;;;13.90;99.90;;;;;;4993685;28;20033;-82
2023/05/05 01:27:15;;;;;;;2.50;1.35;;;13.80;99.90;;;;;;4934108;29;20453;-82
2023/05/05 01:29:48;;;;;;;3.08;1.35;;;13.70;99.90;;;;;;4946750;29;20095;-83
2023/05/05 01:32:19;;;;;;;2.63;1.42;;;13.80;99.90;;;;;;4916040;29;20027;-82
2023/05/05 01:35:09;;;;;;;2.60;1.50;;;13.90;99.90;;;;;;4916027;29;20074;-83
2023/05/05 01:37:46;;;;;;;3.65;2.35;;;13.90;99.90;;;;;;4948847;29;20090;-83
2023/05/05 01:40:14;;;;;;;6.57;3.80;;;14.20;99.90;;;;;;4917007;29;20475;-82
2023/05/05 01:42:42;;;;;;;7.85;5.50;;;14.30;99.90;;;;;;4918445;29;20391;-82
2023/05/05 01:45:10;;;;;;;8.93;6.55;;;14.40;99.90;;;;;;4917505;29;20039;-82
2023/05/05 01:47:38;;;;;;;9.63;7.10;;;14.50;99.90;;;;;;4937954;29;20456;-83
2023/05/05 01:50:06;;;;;;;12.52;8.73;;;14.60;99.90;;;;;;4918267;29;20448;-85
2023/05/05 01:52:33;;;;;;;14.27;9.45;;;14.80;99.90;;;;;;4933407;29;20104;-85
2023/05/05 01:55:00;;;;;;;11.73;9.27;;;14.90;99.90;;;;;;4940391;29;20053;-83
2023/05/05 01:57:30;;;;;;;12.85;9.48;;;14.90;99.90;;;;;;4927602;29;20053;-82
2023/05/05 01:59:58;;;;;;;13.30;11.18;;;14.90;99.90;;;;;;4932186;29;20042;-83
2023/05/05 02:02:26;;;;;;;12.60;10.38;;;15.00;99.90;;;;;;4978795;28;20076;-86
2023/05/05 02:04:55;;;;;;;13.00;10.82;;;15.00;99.90;;;;;;4978631;28;20042;-85
2023/05/05 02:07:23;;;;;;;14.25;10.95;;;15.10;99.90;;;;;;4978284;28;20375;-83
2023/05/05 02:09:50;;;;;;;12.95;11.52;;;15.10;99.90;;;;;;4991652;28;20033;-83
2023/05/05 02:12:19;;;;;;;13.15;11.45;;;15.10;99.90;;;;;;4977920;28;20026;-83
2023/05/05 02:14:46;;;;;;;12.82;10.43;;;15.00;99.90;;;;;;4977577;28;20053;-82
2023/05/05 02:17:17;;;;;;;15.98;12.90;;;15.00;99.90;;;;;;4972839;28;20028;-84
2023/05/05 02:19:46;;;;;;;18.83;13.40;;;14.90;99.90;;;;;;4979723;28;20057;-83
2023/05/05 02:22:14;;;;;;;15.98;12.80;;;14.90;99.90;;;;;;4993443;28;20022;-84
2023/05/05 02:24:39;;;;;;;14.60;12.68;;;14.80;99.90;;;;;;4976078;28;20038;-84
2023/05/05 02:27:07;;;;;;;14.27;11.82;;;14.80;99.90;;;;;;4976112;28;20026;-83
2023/05/05 02:29:46;;;;;;;15.23;12.70;;;14.80;99.90;;;;;;4977476;28;20022;-82
2023/05/05 02:32:19;;;;;;;17.65;13.02;;;14.80;99.90;;;;;;4991266;28;20026;-83
2023/05/05 02:34:49;;;;;;;14.65;11.85;;;14.70;99.90;;;;;;4994357;28;20065;-82
2023/05/05 02:37:21;;;;;;;15.35;12.43;;;14.60;99.90;;;;;;4973496;28;20030;-82
2023/05/05 02:39:57;;;;;;;14.23;12.68;;;14.60;99.90;;;;;;4978394;28;20034;-82
2023/05/05 02:42:28;;;;;;;14.70;12.27;;;14.50;99.90;;;;;;4977770;28;20034;-82
2023/05/05 02:44:57;;;;;;;14.93;12.73;;;14.50;99.90;;;;;;5008757;28;20236;-82
2023/05/05 02:47:32;;;;;;;13.25;11.73;;;14.50;99.90;;;;;;4993586;28;20083;-81
2023/05/05 02:49:58;;;;;;;13.40;10.65;;;14.50;99.90;;;;;;4989605;28;20025;-82
2023/05/05 02:52:24;;;;;;;10.20;9.18;;;14.40;99.90;;;;;;5011215;28;20029;-82
2023/05/05 02:54:50;;;;;;;8.88;7.03;;;14.30;99.90;;;;;;4990412;28;20089;-82
2023/05/05 02:57:19;;;;;;;8.55;6.60;;;14.30;99.90;;;;;;4977945;28;20545;-82
2023/05/05 03:00:06;;;;;;;8.13;6.35;;;14.10;99.90;;;;;;4978759;28;20030;-82
2023/05/05 03:02:47;;;;;;;7.50;6.25;;;13.90;99.90;;;;;;4977394;28;20037;-82
2023/05/05 03:05:30;;;;;;;5.82;5.22;;;13.70;99.90;;;;;;5009390;28;20042;-82
2023/05/05 03:08:07;;;;;;;6.35;5.28;;;13.70;99.90;;;;;;4989509;28;20026;-82
2023/05/05 03:10:40;;;;;;;5.93;5.10;;;13.70;99.90;;;;;;4989999;28;20407;-82
2023/05/05 03:13:09;;;;;;;7.22;4.88;;;13.60;99.90;;;;;;4992090;28;20387;-82
2023/05/05 03:15:45;;;;;;;8.82;7.40;;;13.60;99.90;;;;;;4974952;28;20069;-83
2023/05/05 03:18:16;;;;;;;12.25;8.45;;;13.60;99.90;;;;;;4974562;28;20022;-82
2023/05/05 03:20:46;;;;;;;7.38;6.38;;;13.70;99.90;;;;;;4974389;28;20505;-82
2023/05/05 03:23:17;;;;;;;12.82;9.32;;;13.60;99.90;;;;;;4977506;28;20025;-82
2023/05/05 03:25:45;;;;;;;11.35;10.15;;;13.70;99.90;;;;;;4991238;28;20041;-81
2023/05/05 03:28:17;;;;;;;14.10;11.77;;;13.70;99.90;;;;;;4993471;28;20124;-82
2023/05/05 03:30:43;;;;;;;13.05;11.65;;;13.70;99.90;;;;;;4976436;28;20030;-82
2023/05/05 03:33:10;;;;;;;15.38;11.90;;;13.70;99.90;;;;;;4972501;28;20467;-82
2023/05/05 03:35:37;;;;;;;11.27;9.07;;;13.80;99.90;;;;;;4976439;28;20044;-82
2023/05/05 03:38:06;;;;;;;14.45;11.73;;;13.70;99.90;;;;;;4987063;28;20449;-81
2023/05/05 03:40:32;;;;;;;10.95;9.50;;;13.70;99.90;;;;;;4976272;28;20045;-82
2023/05/05 03:42:58;;;;;;;11.13;9.95;;;13.80;99.90;;;;;;4986263;28;20050;-83
2023/05/05 03:45:24;;;;;;;9.85;8.75;;;13.70;99.90;;;;;;4989307;28;20077;-83
2023/05/05 03:47:51;;;;;;;12.95;10.10;;;13.70;99.90;;;;;;4975691;28;20081;-83
2023/05/05 03:50:17;;;;;;;12.23;10.07;;;13.70;99.90;;;;;;4988573;28;20030;-82
2023/05/05 03:52:44;;;;;;;10.65;9.55;;;13.60;99.90;;;;;;4970967;28;20022;-82
2023/05/05 03:55:10;;;;;;;9.55;8.00;;;13.50;99.90;;;;;;4989931;28;20985;-83
2023/05/05 03:57:36;;;;;;;7.88;6.97;;;13.40;99.90;;;;;;4976012;28;20269;-83
2023/05/05 04:00:14;;;;;;;8.23;7.15;;;13.30;99.90;;;;;;5091375;27;20372;-83
2023/05/05 04:02:44;;;;;;;10.15;7.53;;;13.30;99.90;;;;;;5060914;28;20040;-83
2023/05/05 04:05:12;;;;;;;9.07;6.63;;;13.30;99.90;;;;;;5095752;28;20032;-83
2023/05/05 04:07:38;;;;;;;8.20;6.68;;;13.20;99.90;;;;;;5083250;28;20030;-83
2023/05/05 04:10:04;;;;;;;7.57;6.35;;;13.10;99.90;;;;;;5064599;28;20492;-83
2023/05/05 04:12:30;;;;;;;8.85;6.00;;;13.10;99.90;;;;;;5081643;28;20409;-82
2023/05/05 04:14:56;;;;;;;8.95;7.97;;;13.00;99.90;;;;;;5080561;28;20025;-83
2023/05/05 04:17:21;;;;;;;10.75;7.47;;;13.10;99.90;;;;;;5079263;28;20054;-82
2023/05/05 04:19:48;;;;;;;11.18;7.35;;;13.10;99.90;;;;;;5066637;28;20075;-82
2023/05/05 04:22:13;;;;;;;12.45;10.02;;;13.10;99.90;;;;;;5084356;28;20059;-83
2023/05/05 04:24:40;;;;;;;13.43;11.25;;;13.20;99.90;;;;;;5092468;28;20039;-82
2023/05/05 04:27:05;;;;;;;16.98;13.55;;;13.30;99.90;;;;;;5065542;28;20020;-83
2023/05/05 04:29:31;;;;;;;16.60;13.27;;;13.30;99.90;;;;;;5066368;28;20024;-83
2023/05/05 04:31:57;;;;;;;14.43;11.07;;;13.30;99.90;;;;;;5063138;28;20123;-83
2023/05/05 04:34:23;;;;;;;12.27;8.40;;;13.40;99.90;;;;;;5063748;28;20035;-83
2023/05/05 04:36:50;;;;;;;9.98;7.40;;;13.30;99.90;;;;;;5092859;28;20016;-83
2023/05/05 04:39:15;;;;;;;8.45;6.90;;;13.30;99.90;;;;;;5099394;28;20420;-83
2023/05/05 04:41:41;;;;;;;9.07;7.70;;;13.30;99.90;;;;;;5114304;28;20040;-82
2023/05/05 04:44:08;;;;;;;11.90;8.93;;;13.30;99.90;;;;;;5063486;28;20036;-83
2023/05/05 04:46:34;;;;;;;9.80;8.80;;;13.30;99.90;;;;;;5080530;28;20020;-82
2023/05/05 04:49:02;;;;;;;10.35;7.95;;;13.30;99.90;;;;;;5077648;28;20036;-82
2023/05/05 04:51:27;;;;;;;11.73;8.82;;;13.30;99.90;;;;;;5082183;28;20119;-83
2023/05/05 04:53:55;;;;;;;11.13;9.60;;;13.50;99.90;;;;;;5078399;28;20162;-83
2023/05/05 04:56:21;;;;;;;15.48;11.30;;;13.50;99.90;;;;;;5077522;28;20071;-83
2023/05/05 04:58:47;;;;;;;13.27;10.77;;;13.60;99.90;;;;;;5062071;28;20521;-82
2023/05/05 05:01:12;;;;;;;13.93;10.75;;;13.60;99.90;;;;;;5078446;28;20036;-84
2023/05/05 05:03:38;;;;;;;13.75;10.75;;;13.60;99.90;;;;;;5079754;28;20035;-83
2023/05/05 05:06:03;;;;;;;11.75;9.63;;;13.70;99.90;;;;;;5077743;28;20024;-84
2023/05/05 05:08:29;;;;;;;12.73;10.02;;;13.70;99.90;;;;;;5060604;28;20036;-84
2023/05/05 05:10:55;;;;;;;12.80;8.52;;;13.80;99.90;;;;;;5070674;28;20025;-83
2023/05/05 05:13:21;;;;;;;11.38;8.40;;;13.80;99.90;;;;;;5051792;28;20029;-83
2023/05/05 05:15:47;;;;;;;9.82;7.95;;;13.80;99.90;;;;;;5062893;28;20131;-83
2023/05/05 05:18:12;;;;;;;9.20;6.57;;;13.90;99.90;;;;;;5051744;28;20036;-80
2023/05/05 05:20:38;;;;;;;10.35;6.78;;;13.80;99.90;;;;;;5051032;28;20024;-83
2023/05/05 05:23:04;;;;;;;7.43;6.43;;;13.80;99.90;;;;;;5066457;28;20090;-83
2023/05/05 05:25:33;;;;;;;7.63;5.63;;;13.80;99.90;;;;;;5066245;28;20068;-83
2023/05/05 05:27:58;;;;;;;9.98;5.20;;;13.80;99.90;;;;;;5065171;28;20032;-83
2023/05/05 05:30:24;;;;;;;6.22;5.25;;;13.90;99.90;;;;;;5084299;28;20406;-83
2023/05/05 05:32:50;;;;;;;12.27;5.55;;;13.90;99.90;;;;;;5079360;28;20050;-84
2023/05/05 05:35:16;;;;;;;8.77;5.30;;;13.90;99.90;;;;;;5048504;28;20031;-83
2023/05/05 05:37:42;;;;;;;6.60;4.95;;;14.00;99.90;;;;;;5065696;28;20032;-83
2023/05/05 05:40:09;;;;;;;10.25;5.47;;;14.00;99.90;;;;;;5068860;28;20032;-84
2023/05/05 05:42:35;;;;;;;7.18;4.75;;;14.00;99.90;;;;;;5048999;28;20048;-84
2023/05/05 05:45:02;;;;;;;6.20;3.67;;;14.10;99.90;;;;;;5049042;28;20025;-84
2023/05/05 05:47:28;;;;;;;7.38;5.03;;;14.10;99.90;;;;;;5067909;28;20380;-83
2023/05/05 05:49:55;;;;;;;4.28;3.83;;;14.10;99.90;;;;;;5067069;28;20036;-83
2023/05/05 05:52:21;;;;;;;6.57;4.50;;;14.10;99.90;;;;;;5083950;28;20042;-83
2023/05/05 05:54:47;;;;;;;8.27;4.10;;;14.20;99.90;;;;;;5045297;28;20396;-82
2023/05/05 05:57:13;;;;;;;4.45;2.67;;;14.30;99.90;;;;;;5047966;28;20389;-82
2023/05/05 05:59:38;;;;;;;5.93;3.20;;;14.40;99.90;;;;;;5061612;28;20092;-82
2023/05/05 06:02:05;;;;;;;7.30;3.58;;;14.50;99.90;;;;;;5064841;28;20601;-83
2023/05/05 06:04:32;;;;;;;3.42;2.80;;;14.70;99.90;;;;;;5048398;28;20115;-83
2023/05/05 06:06:58;;;;;;;6.07;3.50;;;14.80;99.90;;;;;;5061998;28;20029;-83
2023/05/05 06:09:24;;;;;;;5.85;3.47;;;15.00;99.90;;;;;;5062510;28;20375;-83
2023/05/05 06:11:51;;;;;;;5.60;3.20;;;15.10;99.90;;;;;;5077313;28;20042;-83
2023/05/05 06:14:17;;;;;;;4.68;2.60;;;15.20;99.90;;;;;;5045726;28;20033;-82
2023/05/05 06:16:43;;;;;;;4.50;3.17;;;15.30;99.90;;;;;;5059099;28;20064;-84
2023/05/05 06:19:23;;;;;;;8.20;5.40;;;15.50;99.90;;;;;;5045153;28;20118;-84
2023/05/05 06:21:49;;;;;;;10.23;4.97;;;15.40;99.90;;;;;;5043602;28;20024;-84
2023/05/05 06:24:15;;;;;;;9.07;5.30;;;15.50;99.90;;;;;;5074437;28;20031;-85
2023/05/05 06:26:41;;;;;;;7.03;4.75;;;15.60;99.90;;;;;;5062518;28;20024;-85
2023/05/05 06:29:07;;;;;;;9.13;5.55;;;15.90;99.90;;;;;;5057575;28;20029;-86
2023/05/05 06:31:33;;;;;;;8.50;5.50;;;15.70;99.90;;;;;;5046435;28;20079;-85
2023/05/05 06:33:58;;;;;;;7.10;5.15;;;15.80;99.90;;;;;;5077202;28;20032;-83
2023/05/05 06:36:25;;;;;;;7.00;4.88;;;15.90;99.90;;;;;;5072536;28;20350;-86
2023/05/05 06:38:53;;;;;;;8.10;6.03;;;16.10;99.90;;;;;;5077697;28;20036;-86
2023/05/05 06:41:18;;;;;;;7.35;6.18;;;15.90;99.90;;;;;;5046357;28;20090;-85
2023/05/05 06:43:44;;;;;;;10.52;4.80;;;16.00;99.90;;;;;;5056156;28;20033;-84
2023/05/05 06:46:12;;;;;;;9.27;6.30;;;16.10;99.90;;;;;;5076875;28;20111;-85
2023/05/05 06:48:38;;;;;;;8.70;6.53;;;16.20;99.90;;;;;;5047843;28;20116;-84
2023/05/05 06:51:03;;;;;;;6.15;5.03;;;16.20;99.90;;;;;;5045373;28;20116;-83
2023/05/05 06:53:29;;;;;;;7.43;5.35;;;16.40;99.90;;;;;;5076148;28;20020;-83
2023/05/05 06:55:55;;;;;;;7.97;4.85;;;16.50;99.90;;;;;;5070987;28;20556;-84
2023/05/05 06:58:20;;;;;;;5.15;4.07;;;16.60;99.90;;;;;;5037218;28;20168;-84
2023/05/05 07:00:46;;;;;;;6.60;4.60;;;16.90;99.90;;;;;;5003508;28;20047;-84
2023/05/05 07:03:15;;;;;;;8.00;4.75;;;16.90;99.90;;;;;;5004897;28;20033;-86
2023/05/05 07:05:43;;;;;;;6.10;4.07;;;17.00;99.90;;;;;;4999600;28;20797;-83
2023/05/05 07:08:08;;;;;;;4.65;3.13;;;17.10;99.90;;;;;;4998758;28;20222;-83
2023/05/05 07:10:34;;;;;;;4.05;2.42;;;17.40;99.90;;;;;;5018868;28;20234;-83
2023/05/05 07:13:00;;;;;;;6.07;3.75;;;17.50;99.90;;;;;;5019855;28;20460;-85
2023/05/05 07:15:25;;;;;;;5.65;4.07;;;17.40;99.90;;;;;;5019104;28;20033;-83
2023/05/05 07:17:51;;;;;;;6.53;3.72;;;17.50;99.90;;;;;;5013213;28;20038;-84
2023/05/05 07:20:17;;;;;;;5.32;4.07;;;17.30;99.90;;;;;;5004983;28;20033;-84
2023/05/05 07:22:42;;;;;;;6.82;3.90;;;17.20;99.90;;;;;;5003188;28;20033;-84
2023/05/05 07:25:08;;;;;;;5.50;4.05;;;17.50;99.90;;;;;;5003841;28;20037;-86
2023/05/05 07:27:37;;;;;;;6.25;4.07;;;17.30;99.90;;;;;;5004475;28;20478;-84
2023/05/05 07:30:04;;;;;;;7.47;4.53;;;17.60;99.90;;;;;;5013815;28;20045;-83
2023/05/05 07:32:30;;;;;;;5.65;3.97;;;17.40;99.90;;;;;;5004007;28;20068;-85
2023/05/05 07:34:55;;;;;;;6.30;4.47;;;17.70;99.90;;;;;;5000461;28;20106;-86
2023/05/05 07:37:21;;;;;;;6.68;4.55;;;17.60;99.90;;;;;;5023190;28;20561;-86
2023/05/05 07:39:47;;;;;;;6.30;4.20;;;17.70;99.90;;;;;;5007485;28;20045;-84
2023/05/05 07:42:14;;;;;;;5.18;4.00;;;18.30;99.90;;;;;;5008838;28;20037;-85
2023/05/05 07:44:39;;;;;;;8.77;5.80;;;18.20;99.90;;;;;;5018602;28;20510;-87
2023/05/05 07:47:05;;;;;;;8.43;6.05;;;17.70;99.90;;;;;;5008337;28;20026;-87
2023/05/05 07:49:31;;;;;;;6.97;5.07;;;17.40;99.90;;;;;;5019057;28;20029;-88
2023/05/05 07:51:57;;;;;;;7.28;5.53;;;17.60;99.90;;;;;;5035831;28;20449;-87
2023/05/05 07:54:22;;;;;;;8.50;5.63;;;17.40;99.90;;;;;;5021997;28;20034;-87
2023/05/05 07:56:48;;;;;;;7.55;6.07;;;17.50;99.90;;;;;;5006638;28;20274;-83
2023/05/05 07:59:14;;;;;;;9.85;6.10;;;17.60;99.90;;;;;;5014256;28;20589;-85
2023/05/05 08:01:42;;;;;;;12.05;7.95;;;17.80;99.90;;;;;;4999462;28;20036;-85
2023/05/05 08:04:08;;;;;;;6.35;5.35;;;17.90;99.90;;;;;;5034909;28;20474;-85
2023/05/05 08:06:33;;;;;;;8.45;3.97;;;18.50;99.90;;;;;;5006041;28;20121;-85
2023/05/05 08:09:00;;;;;;;9.02;6.00;;;18.90;99.90;;;;;;5017514;28;20120;-84
2023/05/05 08:11:26;;;;;;;8.70;6.47;;;18.50;99.90;;;;;;5018901;28;20028;-87
2023/05/05 08:13:52;;;;;;;8.20;6.25;;;18.40;99.90;;;;;;5016432;28;20029;-83
2023/05/05 08:16:17;;;;;;;8.80;6.28;;;18.30;99.90;;;;;;5031736;28;20030;-84
2023/05/05 08:18:43;;;;;;;7.82;5.32;;;18.70;99.90;;;;;;5032392;28;20120;-86
2023/05/05 08:21:10;;;;;;;10.07;6.07;;;18.90;99.90;;;;;;5023827;28;20025;-85
2023/05/05 08:23:36;;;;;;;5.80;3.30;;;19.00;99.90;;;;;;5018092;28;20083;-85
2023/05/05 08:26:05;;;;;;;5.53;4.43;;;19.90;99.90;;;;;;5020990;28;20495;-86
2023/05/05 08:28:31;;;;;;;8.00;3.72;;;19.20;99.90;;;;;;5018444;28;20523;-85
2023/05/05 08:30:57;;;;;;;5.45;4.47;;;19.10;99.90;;;;;;5019446;28;20033;-85
2023/05/05 08:33:23;;;;;;;2.30;1.83;;;19.30;99.90;;;;;;4999717;28;20057;-86
2023/05/05 08:35:49;;;;;;;5.78;4.00;;;19.90;99.90;;;;;;5015597;28;20037;-85
2023/05/05 08:38:16;;;;;;;4.18;2.20;;;19.40;99.90;;;;;;5015644;28;20034;-86
2023/05/05 08:40:41;;;;;;;4.88;2.80;;;20.10;99.90;;;;;;5017200;28;20045;-85
2023/05/05 08:43:07;;;;;;;5.32;3.20;;;19.80;99.90;;;;;;5005912;28;20033;-86
2023/05/05 08:45:33;;;;;;;5.88;4.25;;;19.60;99.90;;;;;;5007087;28;20067;-86
2023/05/05 08:48:03;;;;;;;6.63;4.13;;;19.20;99.90;;;;;;5019697;28;20506;-85
2023/05/05 08:50:30;;;;;;;5.43;3.20;;;19.40;99.90;;;;;;5022020;28;20051;-85
2023/05/05 08:53:09;;;;;;;6.40;3.38;;;19.60;99.90;;;;;;5034815;28;20033;-88
2023/05/05 08:55:45;;;;;;;3.53;2.50;;;19.50;99.90;;;;;;5025915;28;20029;-86
2023/05/05 08:58:12;;;;;;;19.17;4.57;;;19.90;99.90;;;;;;5023268;28;20050;-85
2023/05/05 09:00:41;;;;;;;7.75;4.03;;;20.60;99.90;;;;;;5026791;28;20489;-85
2023/05/05 09:03:07;;;;;;;8.07;3.28;;;19.90;99.90;;;;;;5039226;28;20113;-86
2023/05/05 09:05:34;;;;;;;3.92;1.40;;;20.40;99.90;;;;;;5026042;28;20123;-86
2023/05/05 09:08:00;;;;;;;8.18;1.45;;;21.10;99.90;;;;;;5035619;28;20676;-86
2023/05/05 09:10:27;;;;;;;11.23;2.55;;;21.10;99.90;;;;;;5003637;28;20064;-85
2023/05/05 09:12:53;;;;;;;7.43;2.20;;;20.40;99.90;;;;;;5021510;28;20026;-86
2023/05/05 09:15:19;;;;;;;4.75;1.48;;;20.40;99.90;;;;;;5018525;28;20060;-86
2023/05/05 09:17:45;;;;;;;2.83;0.77;;;20.60;99.90;;;;;;5023237;28;20033;-86
2023/05/05 09:20:12;;;;;;;2.42;0.55;;;20.70;99.90;;;;;;5005890;28;20037;-86
2023/05/05 09:22:40;;;;;;;2.53;0.60;;;21.30;99.90;;;;;;5020793;28;20025;-87
2023/05/05 09:25:08;;;;;;;2.67;0.60;;;20.20;99.90;;;;;;5022037;28;20026;-85
2023/05/05 09:27:41;;;;;;;4.15;0.80;;;20.00;99.90;;;;;;5003751;28;20049;-87
2023/05/05 09:30:08;;;;;;;2.20;0.55;;;20.00;99.90;;;;;;5018650;28;20030;-85
2023/05/05 09:32:52;;;;;;;3.20;0.40;;;20.20;99.90;;;;;;5004171;28;20034;-86
2023/05/05 09:35:20;;;;;;;2.10;0.80;;;20.40;99.90;;;;;;5025789;28;20108;-87
2023/05/05 09:37:45;;;;;;;1.08;0.38;;;20.70;99.90;;;;;;5036172;28;20382;-85
2023/05/05 09:40:17;;;;;;;2.00;0.45;;;21.00;99.90;;;;;;5009960;28;20071;-85
2023/05/05 09:42:43;;;;;;;1.33;0.40;;;20.40;99.90;;;;;;5033771;28;20045;-85
2023/05/05 09:45:20;;;;;;;3.83;0.52;;;21.10;99.90;;;;;;5019493;28;20033;-86
2023/05/05 09:47:46;;;;;;;2.20;0.80;;;20.10;99.90;;;;;;5018702;28;20369;-89
2023/05/05 09:50:14;;;;;;;2.15;0.68;;;19.80;99.90;;;;;;5036030;28;20022;-86
2023/05/05 09:52:54;;;;;;;2.00;0.70;;;19.90;99.90;;;;;;5027423;28;20236;-85
2023/05/05 09:55:20;;;;;;;3.10;0.60;;;20.20;99.90;;;;;;5009620;28;20029;-86
2023/05/05 09:57:46;;;;;;;1.63;0.40;;;20.30;99.90;;;;;;5035291;28;20118;-85
2023/05/05 10:00:13;;;;;;;4.28;0.50;;;20.60;99.90;;;;;;5022670;28;20175;-85
2023/05/05 10:02:39;;;;;;;2.50;0.60;;;20.60;99.90;;;;;;5019406;28;20036;-86
2023/05/05 10:05:16;;;;;;;2.13;0.47;;;20.50;99.90;;;;;;5019957;28;20030;-85
2023/05/05 10:07:46;;;;;;;1.40;0.50;;;20.70;99.90;;;;;;5035717;28;20037;-85
2023/05/05 10:10:12;;;;;;;;;;;20.70;99.90;;;;;;5043324;28;20025;-85
2023/05/05 10:12:38;;;;;;;1.73;0.50;;;20.40;99.90;;;;;;5052860;28;19908;-85
2023/05/05 10:15:06;;;;;;;2.33;0.50;;;20.20;99.90;;;;;;5035289;28;20065;-85
2023/05/05 10:17:35;;;;;;;1.35;0.60;;;20.20;99.90;;;;;;5007872;28;20025;-85
2023/05/05 10:20:02;;;;;;;1.58;0.55;;;20.00;99.90;;;;;;5019547;28;20049;-85
2023/05/05 10:22:33;;;;;;;2.22;0.60;;;20.00;99.90;;;;;;5021191;28;20033;-86
2023/05/05 10:25:09;;;;;;;1.65;0.40;;;19.80;99.90;;;;;;5019388;28;20042;-86
2023/05/05 10:27:44;;;;;;;1.40;0.50;;;20.10;99.90;;;;;;5015607;28;20026;-85
2023/05/05 10:30:21;;;;;;;1.38;0.35;;;20.10;99.90;;;;;;5033388;28;20080;-84
2023/05/05 10:32:50;;;;;;;3.28;0.73;;;20.40;99.90;;;;;;5024322;28;20061;-86
2023/05/05 10:35:20;;;;;;;2.53;0.50;;;20.00;99.90;;;;;;5033338;28;20033;-85
2023/05/05 10:37:47;;;;;;;1.42;0.50;;;20.30;99.90;;;;;;5001498;28;20025;-86
2023/05/05 10:40:13;;;;;;;1.20;0.40;;;20.20;99.90;;;;;;5018825;28;20074;-86
2023/05/05 10:42:40;;;;;;;1.13;0.30;;;20.20;99.90;;;;;;5023158;28;20025;-85
2023/05/05 10:45:06;;;;;;;1.00;0.40;;;20.50;99.90;;;;;;5000605;28;20033;-85
2023/05/05 10:47:34;;;;;;;1.63;0.40;;;20.50;99.90;;;;;;5006896;28;20018;-86
2023/05/05 10:50:28;;;;;;;1.58;0.40;;;20.30;99.90;;;;;;5017448;28;20107;-85
2023/05/05 10:53:17;;;;;;;1.52;0.50;;;20.50;99.90;;;;;;5037036;28;20048;-85
2023/05/05 10:55:46;;;;;;;;;;;20.50;99.90;;;;;;5020373;28;20140;-84
2023/05/05 10:58:34;;;;;;;1.90;0.40;;;20.60;99.90;;;;;;5020268;28;19953;-86
2023/05/05 11:01:01;;;;;;;1.83;0.57;;;21.00;99.90;;;;;;5018152;28;20034;-85
2023/05/05 11:03:27;;;;;;;3.58;0.75;;;21.00;99.90;;;;;;5023438;28;20022;-85
2023/05/05 11:06:02;;;;;;;1.85;0.50;;;20.70;99.90;;;;;;5032809;28;20026;-85
2023/05/05 11:08:29;;;;;;;1.58;0.50;;;20.60;99.90;;;;;;5033210;28;20048;-85
2023/05/05 11:10:55;;;;;;;5.53;0.65;;;20.60;99.90;;;;;;5015959;28;20140;-84
2023/05/05 11:13:21;;;;;;;1.67;0.50;;;20.80;99.90;;;;;;5003742;28;20170;-86
2023/05/05 11:15:48;;;;;;;4.05;1.83;;;20.90;99.90;;;;;;5018827;28;20026;-86
2023/05/05 11:18:29;;;;;;;1.88;0.70;;;20.40;99.90;;;;;;5006908;28;20242;-83
2023/05/05 11:20:58;;;;;;;1.85;0.60;;;20.70;99.90;;;;;;5034137;28;20152;-85
2023/05/05 11:23:25;;;;;;;1.48;0.60;;;20.60;99.90;;;;;;5016136;28;20080;-88
2023/05/05 11:25:51;;;;;;;1.50;0.60;;;20.70;99.90;;;;;;5017404;28;20087;-85
2023/05/05 11:28:24;;;;;;;3.05;0.90;;;21.00;99.90;;;;;;5019338;28;20557;-84
2023/05/05 11:30:57;;;;;;;1.85;0.70;;;20.80;99.90;;;;;;5018118;28;20116;-84
2023/05/05 11:33:29;;;;;;;1.85;0.70;;;21.00;99.90;;;;;;5017099;28;20041;-85
2023/05/05 11:36:00;;;;;;;3.13;1.25;;;21.00;99.90;;;;;;5018125;28;20018;-86
2023/05/05 11:38:39;;;;;;;4.03;2.58;;;20.50;99.90;;;;;;4999492;28;20057;-86
2023/05/05 11:41:31;;;;;;;4.88;3.40;;;19.70;99.90;;;;;;5012741;28;20114;-86
2023/05/05 11:44:17;;;;;;;10.05;1.75;;;19.60;99.90;;;;;;5000224;28;20109;-86
2023/05/05 11:47:09;;;;;;;10.95;3.03;;;20.10;99.90;;;;;;5027895;28;20496;-82
2023/05/05 11:49:36;;;;;;;3.15;0.98;;;19.80;99.90;;;;;;5035335;28;20037;-92
2023/05/05 11:52:05;;;;;;;3.50;1.90;;;19.90;99.90;;;;;;5009324;28;20052;-86
2023/05/05 11:54:31;;;;;;;;;;;19.30;99.90;;;;;;5023769;28;20037;-86
2023/05/05 11:57:04;;;;;;;3.53;1.52;;;18.90;99.90;;;;;;5032894;28;20383;-90
2023/05/05 11:59:31;;;;;;;3.88;1.38;;;18.90;99.90;;;;;;5024399;28;20049;-88
2023/05/05 12:01:57;;;;;;;1.75;0.20;;;17.50;99.90;;;;;;5009292;28;20030;-89
2023/05/05 12:04:24;;;;;;;2.22;0.10;;;15.60;99.90;;;;;;5019405;28;20454;-89
2023/05/05 12:06:50;;;;;;;1.38;0.30;;;14.80;99.90;;;;;;5034934;28;20117;-90
2023/05/05 12:09:18;;;;;;;1.15;0.10;;;14.40;99.90;;;;;;5029177;28;20120;-87
2023/05/05 12:12:02;;;;;;;1.88;0.00;;;14.10;99.90;;;;;;5003450;28;20359;-87
2023/05/05 12:14:28;;;;;;;0.50;0.10;;;13.90;99.90;;;;;;5019250;28;20604;-87
2023/05/05 12:16:54;;;;;;;0.50;0.00;;;13.60;99.90;;;;;;5021231;28;20029;-89
2023/05/05 12:19:20;;;;;;;0.82;0.00;;;13.40;99.90;;;;;;5014102;28;20084;-88
2023/05/05 12:21:46;;;;;;;0.47;0.05;;;13.40;99.90;;;;;;5021768;28;20816;-86
2023/05/05 12:24:12;;;;;;;0.77;0.00;;;13.50;99.90;;;;;;5023118;28;20159;-88
2023/05/05 12:26:38;;;;;;;0.60;0.03;;;13.50;99.90;;;;;;5024363;28;20017;-89
2023/05/05 12:29:04;;;;;;;0.57;0.10;;;13.30;99.90;;;;;;5038480;28;20041;-90
2023/05/05 12:31:39;;;;;;;0.32;0.10;;;13.20;99.90;;;;;;5022057;28;20471;-89
2023/05/05 12:34:06;;;;;;;2.05;0.10;;;13.30;99.90;;;;;;5022196;28;20100;-89
2023/05/05 12:36:33;;;;;;;2.20;0.20;;;13.20;99.90;;;;;;5009175;28;20025;-90
2023/05/05 12:38:59;;;;;;;0.95;0.20;;;13.30;99.90;;;;;;5011319;28;20497;-92
2023/05/05 12:41:25;;;;;;;0.95;0.10;;;13.20;99.90;;;;;;5025643;28;20028;-91
2023/05/05 12:43:58;;;;;;;1.35;0.10;;;13.10;99.90;;;;;;5021797;28;20037;-89
2023/05/05 12:46:25;;;;;;;0.63;0.10;;;13.20;99.90;;;;;;5023508;28;20048;-89
2023/05/05 12:49:03;;;;;;;0.50;0.10;;;13.20;99.90;;;;;;5021990;28;20029;-90
2023/05/05 12:51:31;;;;;;;0.90;0.10;;;13.10;99.90;;;;;;5007310;28;20037;-88